Terminal Aerodrome Forecast
Issued by NWS

Home | Current Version | Previous Version | Text Only | Print | Product List | Glossary On
Versions: 1 2 3 4 5 6 7 8 9 10 11 12 13 14 15 16
000
FTUS41 KGYX 302320
TAFRKD
TAF
KRKD 302320Z 3100/3124 20006KT P6SM SCT120 BKN250
     FM310600 23005KT 2SM BR OVC004
     FM310900 23007KT 1/2SM FG OVC002
     FM311400 22009KT P6SM OVC025
     FM311600 22009KT P6SM OVC050
      AMD LTD TO CLD VIS AND WIND=

USA.gov is the U.S. government's official web portal to all federal, state and local government web resources and services.